createdAt,value
2019-02-17T00:01:28.729Z,57.50
2019-02-17T00:03:57.751Z,56.00
2019-02-17T00:06:26.913Z,54.00
2019-02-17T00:08:59.286Z,56.00
2019-02-17T00:11:28.318Z,54.50
2019-02-17T00:13:57.444Z,56.00
2019-02-17T00:16:26.558Z,57.50
2019-02-17T00:18:55.668Z,53.50
2019-02-17T00:21:24.941Z,56.00
2019-02-17T00:26:33.570Z,56.00
2019-02-17T00:29:08.005Z,54.00
2019-02-17T00:31:37.085Z,54.00
2019-02-17T00:34:06.172Z,56.00
2019-02-17T00:36:35.457Z,51.50
2019-02-17T00:39:09.178Z,53.50
2019-02-17T00:41:38.310Z,54.50
2019-02-17T00:44:09.542Z,52.50
2019-02-17T00:46:38.550Z,55.00
2019-02-17T00:49:10.741Z,55.00
2019-02-17T00:51:39.757Z,54.50
2019-02-17T00:54:13.198Z,53.00
2019-02-17T00:56:42.275Z,52.00
2019-02-17T00:59:11.341Z,52.00
2019-02-17T01:01:40.368Z,52.00
2019-02-17T01:04:09.397Z,54.50
2019-02-17T01:06:38.405Z,54.00
2019-02-17T01:09:08.763Z,53.00
2019-02-17T01:11:37.829Z,56.00
2019-02-17T01:14:06.979Z,53.00
2019-02-17T01:16:36.037Z,52.00
2019-02-17T01:19:05.559Z,53.50
2019-02-17T01:21:36.777Z,52.00
2019-02-17T01:24:06.394Z,53.00
2019-02-17T01:26:35.394Z,52.00
2019-02-17T01:29:07.532Z,52.00
2019-02-17T01:31:36.639Z,48.50
2019-02-17T01:34:10.965Z,48.00
2019-02-17T01:36:40.125Z,49.00
2019-02-17T01:39:09.331Z,47.50
2019-02-17T01:41:38.470Z,49.00
2019-02-17T01:44:08.456Z,48.50
2019-02-17T01:46:38.504Z,50.50
2019-02-17T01:49:08.239Z,50.50
2019-02-17T01:51:37.289Z,51.50
2019-02-17T01:54:06.543Z,47.50
2019-02-17T01:56:37.897Z,51.00
2019-02-17T01:59:06.988Z,52.00
2019-02-17T02:01:35.976Z,51.00
2019-02-17T02:04:05.074Z,48.50
2019-02-17T02:06:34.090Z,49.00
2019-02-17T02:09:03.289Z,48.00
2019-02-17T02:11:32.383Z,53.00
2019-02-17T02:14:01.421Z,47.50
2019-02-17T02:16:30.573Z,47.50
2019-02-17T02:18:59.676Z,48.00
2019-02-17T02:21:28.769Z,48.50
2019-02-17T02:23:57.864Z,52.50
2019-02-17T02:26:26.935Z,47.00
2019-02-17T02:28:56.054Z,46.50
2019-02-17T02:31:25.096Z,51.00
2019-02-17T02:33:54.108Z,48.00
2019-02-17T02:36:24.651Z,48.50
2019-02-17T02:38:53.749Z,45.50
2019-02-17T02:41:33.849Z,46.00
2019-02-17T02:43:53.543Z,47.50
2019-02-17T02:46:22.673Z,50.00
2019-02-17T02:48:51.695Z,51.50
2019-02-17T02:51:20.773Z,51.00
2019-02-17T02:53:49.868Z,48.00
2019-02-17T02:56:18.883Z,47.00
2019-02-17T02:58:47.926Z,49.00
2019-02-17T03:01:16.952Z,48.00
2019-02-17T03:03:46.263Z,50.50
2019-02-17T03:06:28.247Z,50.00
2019-02-17T03:08:57.300Z,50.00
2019-02-17T03:11:26.338Z,51.50
2019-02-17T03:13:55.409Z,46.00
2019-02-17T03:16:24.499Z,50.50
2019-02-17T03:18:53.643Z,51.00
2019-02-17T03:21:22.650Z,49.50
2019-02-17T03:23:52.762Z,46.00
2019-02-17T03:26:21.816Z,52.00
2019-02-17T03:28:50.920Z,52.00
2019-02-17T03:31:19.953Z,47.00
2019-02-17T03:33:49.443Z,48.00
2019-02-17T03:36:18.432Z,49.50
2019-02-17T03:38:47.446Z,48.00
2019-02-17T03:41:16.443Z,49.50
2019-02-17T03:43:45.449Z,47.00
2019-02-17T03:46:14.586Z,47.50
2019-02-17T03:48:43.601Z,47.00
2019-02-17T03:51:12.822Z,48.00
2019-02-17T03:53:41.774Z,47.50
2019-02-17T03:56:10.862Z,47.50
2019-02-17T03:58:39.908Z,52.00
2019-02-17T04:01:08.974Z,50.00
2019-02-17T04:03:38.010Z,48.00
2019-02-17T04:06:07.072Z,52.00
2019-02-17T04:08:36.050Z,48.50
2019-02-17T04:11:05.155Z,48.00
2019-02-17T04:13:34.250Z,48.00
2019-02-17T04:16:03.374Z,49.00
2019-02-17T04:18:32.724Z,48.50
2019-02-17T04:21:01.853Z,47.50
2019-02-17T04:23:31.761Z,49.50
2019-02-17T04:26:00.929Z,49.00
2019-02-17T04:32:35.446Z,48.50
2019-02-17T04:41:42.381Z,48.50
2019-02-17T04:44:11.592Z,51.50
2019-02-17T04:46:40.701Z,52.00
2019-02-17T04:49:11.190Z,46.50
2019-02-17T04:51:40.261Z,48.00
2019-02-17T04:54:09.251Z,46.00
2019-02-17T04:56:38.777Z,46.00
2019-02-17T04:59:08.147Z,49.00
2019-02-17T05:01:37.233Z,47.00
2019-02-17T05:04:06.365Z,47.50
2019-02-17T05:06:35.453Z,47.50
2019-02-17T05:09:05.715Z,49.50
2019-02-17T05:11:35.012Z,46.50
2019-02-17T05:14:27.098Z,47.50
2019-02-17T05:21:03.843Z,48.00
2019-02-17T05:23:32.918Z,48.50
2019-02-17T05:26:01.934Z,50.50
2019-02-17T05:28:31.036Z,48.00
2019-02-17T05:31:00.125Z,49.00
2019-02-17T05:33:29.202Z,52.00
2019-02-17T05:35:58.240Z,51.50
2019-02-17T05:38:27.232Z,48.50
2019-02-17T05:40:56.339Z,47.00
2019-02-17T05:43:25.354Z,48.00
2019-02-17T05:45:54.373Z,48.00
2019-02-17T05:48:23.490Z,47.50
2019-02-17T05:50:52.559Z,46.50
2019-02-17T05:53:21.666Z,48.00
2019-02-17T05:55:52.222Z,45.50
2019-02-17T05:58:22.798Z,46.00
2019-02-17T06:01:02.986Z,48.00
2019-02-17T06:03:22.699Z,47.00
2019-02-17T06:05:51.723Z,47.00
2019-02-17T06:08:20.830Z,47.50
2019-02-17T06:10:49.846Z,47.00
2019-02-17T06:13:21.011Z,47.00
2019-02-17T06:15:50.021Z,46.00
2019-02-17T06:18:19.013Z,47.50
2019-02-17T06:20:48.062Z,48.00
2019-02-17T06:23:17.029Z,48.00
2019-02-17T06:25:46.106Z,47.50
2019-02-17T06:28:15.179Z,48.00
2019-02-17T06:30:44.250Z,47.50
2019-02-17T06:33:13.280Z,47.00
2019-02-17T06:35:42.301Z,45.50
2019-02-17T06:38:11.281Z,47.00
2019-02-17T06:40:40.305Z,46.00
2019-02-17T06:43:09.323Z,48.00
2019-02-17T06:45:38.404Z,46.00
2019-02-17T06:48:07.459Z,49.50
2019-02-17T06:50:36.551Z,46.50
2019-02-17T06:53:05.563Z,44.50
2019-02-17T06:55:53.494Z,44.00
2019-02-17T06:58:22.694Z,49.00
2019-02-17T07:00:54.019Z,46.00
2019-02-17T07:03:23.117Z,46.00
2019-02-17T07:06:03.324Z,48.00
2019-02-17T07:08:32.403Z,46.50
2019-02-17T07:11:01.557Z,47.50
2019-02-17T07:13:32.093Z,45.50
2019-02-17T07:16:01.187Z,48.00
2019-02-17T07:18:30.275Z,48.50
2019-02-17T07:20:59.337Z,48.00
2019-02-17T07:23:28.353Z,48.00
2019-02-17T07:25:57.440Z,48.00
2019-02-17T07:28:26.558Z,44.00
2019-02-17T07:30:55.963Z,48.00
2019-02-17T07:33:25.016Z,48.50
2019-02-17T07:35:56.490Z,50.00
2019-02-17T07:38:25.532Z,48.50
2019-02-17T07:40:54.553Z,47.50
2019-02-17T07:43:23.735Z,48.50
2019-02-17T07:45:52.772Z,48.50
2019-02-17T07:48:21.846Z,47.00
2019-02-17T07:50:50.893Z,53.00
2019-02-17T07:53:19.916Z,50.50
2019-02-17T07:55:50.600Z,49.00
2019-02-17T07:58:19.658Z,47.50
2019-02-17T08:00:48.748Z,48.00
2019-02-17T08:03:17.825Z,49.50
2019-02-17T08:05:46.888Z,49.00
2019-02-17T08:08:15.984Z,48.00
2019-02-17T08:10:45.154Z,49.00
2019-02-17T08:13:14.350Z,52.00
2019-02-17T08:15:44.531Z,46.00
2019-02-17T08:18:13.621Z,47.00
2019-02-17T08:20:42.683Z,51.00
2019-02-17T08:23:11.850Z,53.50
2019-02-17T08:25:41.034Z,52.00
2019-02-17T08:28:10.148Z,49.50
2019-02-17T08:30:39.199Z,48.00
2019-02-17T08:33:08.210Z,50.50
2019-02-17T08:35:37.233Z,49.50
2019-02-17T08:38:06.260Z,52.00
2019-02-17T08:40:35.270Z,51.50
2019-02-17T08:43:04.256Z,51.50
2019-02-17T08:45:33.371Z,52.00
2019-02-17T08:48:02.510Z,51.50
2019-02-17T08:50:31.549Z,52.50
2019-02-17T08:53:00.582Z,51.00
2019-02-17T08:55:29.797Z,49.50
2019-02-17T08:57:59.309Z,51.00
2019-02-17T09:00:28.319Z,47.00
2019-02-17T09:02:57.383Z,51.00
2019-02-17T09:05:26.408Z,52.00
2019-02-17T09:07:55.513Z,52.00
2019-02-17T09:10:24.604Z,52.00
2019-02-17T09:12:53.592Z,50.00
2019-02-17T09:15:22.622Z,52.50
2019-02-17T09:17:51.721Z,52.00
2019-02-17T09:20:26.026Z,53.50
2019-02-17T09:22:55.148Z,49.00
2019-02-17T09:25:24.219Z,50.50
2019-02-17T09:27:53.270Z,52.00
2019-02-17T09:30:22.399Z,53.00
2019-02-17T09:32:54.905Z,52.50
2019-02-17T09:35:23.958Z,49.25
2019-02-17T09:37:52.959Z,51.50
2019-02-17T09:40:21.969Z,52.75
2019-02-17T09:42:51.048Z,51.75
2019-02-17T09:45:22.380Z,48.75
2019-02-17T09:47:51.479Z,51.00
2019-02-17T09:50:20.685Z,48.75
2019-02-17T09:52:50.778Z,47.75
2019-02-17T09:55:19.947Z,47.75
2019-02-17T09:57:48.978Z,46.50
2019-02-17T10:00:18.232Z,49.00
2019-02-17T10:02:47.228Z,47.00
2019-02-17T10:05:16.307Z,46.25
2019-02-17T10:07:45.338Z,45.75
2019-02-17T10:10:14.813Z,44.75
2019-02-17T10:12:43.930Z,42.25
2019-02-17T10:15:13.530Z,41.00
2019-02-17T10:17:42.778Z,42.50
2019-02-17T10:20:12.028Z,46.00
2019-02-17T10:22:41.189Z,44.75
2019-02-17T10:25:10.415Z,45.50
2019-02-17T10:27:39.523Z,45.75
2019-02-17T10:30:10.564Z,43.50
2019-02-17T10:32:39.527Z,43.75
2019-02-17T10:35:08.650Z,43.75
2019-02-17T10:37:40.079Z,44.75
2019-02-17T10:40:11.152Z,45.75
2019-02-17T10:42:40.137Z,44.25
2019-02-17T10:45:11.026Z,45.25
2019-02-17T10:47:41.657Z,44.25
2019-02-17T10:50:10.852Z,43.50
2019-02-17T10:52:39.933Z,42.75
2019-02-17T10:55:09.234Z,42.75
2019-02-17T10:57:39.660Z,42.00
2019-02-17T11:00:12.347Z,43.25
2019-02-17T11:02:47.001Z,42.75
2019-02-17T11:05:12.270Z,41.00
2019-02-17T11:07:41.246Z,40.50
2019-02-17T11:10:10.503Z,42.00
2019-02-17T11:12:39.579Z,43.50
2019-02-17T11:15:10.747Z,42.50
2019-02-17T11:17:41.252Z,42.25
2019-02-17T11:20:10.632Z,40.00
2019-02-17T11:22:39.660Z,38.75
2019-02-17T11:25:08.933Z,41.75
2019-02-17T11:27:38.097Z,41.25
2019-02-17T11:30:09.463Z,38.75
2019-02-17T11:32:38.599Z,40.75
2019-02-17T11:35:08.459Z,40.50
2019-02-17T11:37:37.557Z,41.25
2019-02-17T11:40:08.745Z,42.00
2019-02-17T11:42:40.262Z,39.25
2019-02-17T11:45:12.991Z,42.00
2019-02-17T11:47:41.981Z,39.50
2019-02-17T11:50:11.328Z,39.75
2019-02-17T11:52:40.528Z,41.50
2019-02-17T11:55:10.954Z,39.25
2019-02-17T11:57:49.556Z,40.75
2019-02-17T12:00:20.185Z,41.75
2019-02-17T12:02:50.266Z,39.25
2019-02-17T12:05:19.485Z,42.25
2019-02-17T12:07:50.359Z,42.25
2019-02-17T12:10:19.512Z,41.50
2019-02-17T12:12:48.691Z,42.00
2019-02-17T12:15:17.871Z,41.00
2019-02-17T12:17:48.862Z,39.75
2019-02-17T12:20:37.974Z,39.75
2019-02-17T12:23:15.644Z,39.75
2019-02-17T12:26:16.113Z,39.00
2019-02-17T12:28:49.801Z,39.75
2019-02-17T12:31:25.804Z,40.75
2019-02-17T12:33:54.849Z,39.75
2019-02-17T12:36:23.923Z,38.75
2019-02-17T12:38:52.970Z,38.25
2019-02-17T12:41:22.043Z,37.75
2019-02-17T12:43:51.074Z,37.00
2019-02-17T12:46:20.106Z,36.75
2019-02-17T12:48:49.505Z,34.75
2019-02-17T12:51:24.305Z,34.75
2019-02-17T12:53:55.789Z,35.25
2019-02-17T12:56:25.827Z,36.25
2019-02-17T12:58:56.151Z,37.75
2019-02-17T13:01:25.171Z,34.25
2019-02-17T13:03:54.195Z,37.00
2019-02-17T13:06:23.241Z,36.25
2019-02-17T13:08:52.271Z,34.75
2019-02-17T13:11:21.280Z,33.75
2019-02-17T13:13:50.331Z,34.00
2019-02-17T13:16:19.462Z,37.00
2019-02-17T13:18:48.476Z,36.00
2019-02-17T13:21:17.597Z,36.75
2019-02-17T13:23:46.554Z,33.75
2019-02-17T13:26:15.659Z,35.50
2019-02-17T13:28:44.654Z,34.25
2019-02-17T13:31:13.714Z,34.50
2019-02-17T13:33:42.741Z,35.00
2019-02-17T13:36:11.915Z,34.00
2019-02-17T13:38:40.941Z,34.75
2019-02-17T13:41:09.948Z,35.50
2019-02-17T13:43:40.181Z,33.00
2019-02-17T13:46:09.195Z,34.25
2019-02-17T13:48:38.274Z,35.25
2019-02-17T13:51:07.359Z,34.00
2019-02-17T13:53:36.468Z,34.75
2019-02-17T13:56:05.526Z,34.75
2019-02-17T13:58:34.487Z,33.50
2019-02-17T14:01:03.579Z,36.25
2019-02-17T14:03:32.710Z,34.00
2019-02-17T14:06:02.850Z,35.00
2019-02-17T14:08:31.905Z,34.00
2019-02-17T14:11:01.075Z,35.00
2019-02-17T14:13:30.108Z,34.00
2019-02-17T14:15:59.152Z,34.75
2019-02-17T14:18:28.195Z,33.50
2019-02-17T14:20:57.307Z,33.50
2019-02-17T14:23:26.313Z,32.75
2019-02-17T14:25:55.433Z,34.00
2019-02-17T14:28:24.657Z,32.75
2019-02-17T14:30:53.657Z,34.75
2019-02-17T14:33:22.664Z,33.25
2019-02-17T14:35:51.736Z,32.75
2019-02-17T14:38:20.711Z,33.25
2019-02-17T14:40:49.734Z,34.50
2019-02-17T14:43:18.740Z,32.75
2019-02-17T14:45:48.825Z,32.75
2019-02-17T14:48:17.853Z,32.75
2019-02-17T14:50:46.889Z,31.50
2019-02-17T14:53:16.248Z,33.75
2019-02-17T14:55:45.550Z,33.75
2019-02-17T14:58:16.249Z,33.00
2019-02-17T15:00:45.301Z,35.50
2019-02-17T15:03:21.626Z,32.00
2019-02-17T15:06:33.685Z,34.75
2019-02-17T15:09:04.253Z,37.25
2019-02-17T15:11:35.559Z,34.75
2019-02-17T15:14:04.816Z,37.50
2019-02-17T15:20:17.778Z,37.75
2019-02-17T15:22:54.931Z,39.25
2019-02-17T15:25:24.167Z,39.25
2019-02-17T15:27:53.367Z,38.00
2019-02-17T15:30:22.487Z,38.00
2019-02-17T15:32:53.025Z,38.75
2019-02-17T15:35:25.033Z,35.25
2019-02-17T15:37:56.427Z,36.25
2019-02-17T15:40:25.557Z,41.00
2019-02-17T15:42:54.662Z,36.50
2019-02-17T15:45:23.890Z,41.75
2019-02-17T15:47:52.972Z,41.00
2019-02-17T15:50:23.569Z,41.75
2019-02-17T15:52:54.919Z,37.00
2019-02-17T15:55:24.210Z,34.50
2019-02-17T15:57:53.226Z,37.00
2019-02-17T16:00:22.436Z,39.00
2019-02-17T16:02:51.499Z,36.00
2019-02-17T16:05:20.612Z,36.00
2019-02-17T16:07:49.658Z,33.50
2019-02-17T16:10:18.813Z,36.75
2019-02-17T16:12:48.209Z,37.00
2019-02-17T16:15:17.481Z,36.75
2019-02-17T16:17:46.626Z,36.25
2019-02-17T16:20:15.922Z,36.00
2019-02-17T16:22:51.590Z,36.50
2019-02-17T16:25:22.230Z,37.50
2019-02-17T16:27:51.552Z,36.75
2019-02-17T16:30:24.620Z,37.00
2019-02-17T16:33:54.417Z,39.75
2019-02-17T16:39:31.558Z,37.75
2019-02-17T16:42:00.590Z,39.50
2019-02-17T16:44:29.711Z,38.75
2019-02-17T16:46:58.737Z,37.25
2019-02-17T16:49:27.784Z,41.75
2019-02-17T16:51:58.422Z,40.00
2019-02-17T16:54:27.545Z,41.00
2019-02-17T16:56:56.554Z,43.75
2019-02-17T16:59:25.644Z,41.75
2019-02-17T17:01:55.297Z,43.00
2019-02-17T17:04:24.477Z,42.25
2019-02-17T17:06:53.582Z,41.25
2019-02-17T17:09:22.676Z,40.25
2019-02-17T17:11:51.721Z,41.75
2019-02-17T17:14:20.846Z,42.25
2019-02-17T17:16:49.842Z,44.75
2019-02-17T17:19:18.933Z,42.75
2019-02-17T17:21:48.003Z,41.25
2019-02-17T17:24:17.150Z,42.00
2019-02-17T17:26:46.229Z,39.75
2019-02-17T17:29:15.232Z,38.00
2019-02-17T17:31:44.272Z,39.75
2019-02-17T17:34:13.436Z,39.25
2019-02-17T17:36:42.441Z,38.75
2019-02-17T17:39:11.541Z,39.75
2019-02-17T17:41:40.608Z,40.00
2019-02-17T17:44:09.635Z,43.25
2019-02-17T17:46:38.776Z,40.75
2019-02-17T17:49:07.778Z,41.25
2019-02-17T17:51:36.780Z,42.00
2019-02-17T17:54:05.806Z,39.25
2019-02-17T17:56:34.807Z,42.50
2019-02-17T17:59:03.972Z,39.25
2019-02-17T18:01:32.997Z,44.75
2019-02-17T18:04:02.039Z,44.75
2019-02-17T18:06:33.813Z,45.75
2019-02-17T18:09:02.805Z,42.25
2019-02-17T18:11:31.810Z,46.50
2019-02-17T18:14:00.836Z,45.00
2019-02-17T18:16:29.868Z,43.25
2019-02-17T18:18:58.944Z,46.25
2019-02-17T18:21:28.047Z,44.75
2019-02-17T18:23:57.179Z,47.75
2019-02-17T18:26:26.172Z,49.00
2019-02-17T18:28:55.201Z,46.75
2019-02-17T18:31:24.295Z,44.75
2019-02-17T18:33:53.353Z,49.00
2019-02-17T18:36:22.393Z,48.25
2019-02-17T18:38:51.424Z,49.75
2019-02-17T18:41:20.437Z,48.75
2019-02-17T18:43:50.475Z,49.25
2019-02-17T18:46:19.594Z,49.25
2019-02-17T18:48:49.659Z,48.25
2019-02-17T18:51:18.613Z,50.75
2019-02-17T18:53:49.926Z,50.75
2019-02-17T18:56:19.108Z,52.75
2019-02-17T18:58:48.410Z,52.25
2019-02-17T19:01:17.469Z,49.75
2019-02-17T19:03:46.551Z,49.25
2019-02-17T19:06:15.575Z,50.75
2019-02-17T19:08:44.613Z,51.00
2019-02-17T19:11:13.637Z,51.75
2019-02-17T19:13:42.733Z,51.75
2019-02-17T19:16:11.714Z,52.75
2019-02-17T19:18:40.716Z,56.75
2019-02-17T19:21:09.761Z,51.75
2019-02-17T19:23:40.081Z,53.75
2019-02-17T19:26:09.224Z,54.75
2019-02-17T19:28:38.320Z,51.00
2019-02-17T19:31:07.520Z,50.75
2019-02-17T19:33:36.562Z,49.75
2019-02-17T19:36:08.455Z,51.75
2019-02-17T19:38:37.505Z,50.25
2019-02-17T19:41:06.772Z,52.25
2019-02-17T19:43:35.828Z,51.75
2019-02-17T19:46:04.849Z,52.25
2019-02-17T19:48:33.962Z,50.25
2019-02-17T19:51:05.354Z,52.75
2019-02-17T19:53:34.413Z,50.75
2019-02-17T19:56:03.577Z,50.25
2019-02-17T19:58:32.673Z,48.00
2019-02-17T20:01:01.905Z,48.00
2019-02-17T20:03:46.121Z,48.00
2019-02-17T20:06:17.315Z,46.25
2019-02-17T20:08:46.315Z,48.00
2019-02-17T20:11:15.400Z,49.75
2019-02-17T20:13:44.469Z,51.75
2019-02-17T20:16:13.495Z,45.00
2019-02-17T20:18:42.537Z,50.25
2019-02-17T20:21:11.615Z,52.25
2019-02-17T20:23:40.632Z,52.25
2019-02-17T20:26:09.686Z,50.75
2019-02-17T20:28:43.409Z,51.25
2019-02-17T20:31:09.543Z,49.25
2019-02-17T20:33:38.590Z,52.00
2019-02-17T20:36:07.725Z,52.25
2019-02-17T20:38:36.811Z,46.25
2019-02-17T20:41:06.094Z,49.00
2019-02-17T20:43:37.475Z,46.25
2019-02-17T20:46:06.627Z,50.75
2019-02-17T20:48:35.633Z,49.25
2019-02-17T20:51:04.740Z,44.50
2019-02-17T20:53:33.750Z,46.75
2019-02-17T20:56:03.132Z,49.25
2019-02-17T20:58:32.166Z,50.25
2019-02-17T21:01:01.377Z,48.75
2019-02-17T21:03:30.488Z,47.00
2019-02-17T21:05:59.579Z,44.00
2019-02-17T21:08:28.654Z,44.00
2019-02-17T21:10:57.715Z,45.75
2019-02-17T21:13:26.835Z,47.25
2019-02-17T21:15:55.822Z,45.75
2019-02-17T21:18:24.965Z,45.75
2019-02-17T21:20:54.079Z,48.50
2019-02-17T21:23:23.197Z,51.25
2019-02-17T21:25:52.248Z,45.75
2019-02-17T21:28:22.672Z,50.75
2019-02-17T21:30:51.793Z,44.75
2019-02-17T21:33:20.885Z,41.25
2019-02-17T21:35:50.102Z,45.75
2019-02-17T21:38:20.765Z,43.50
2019-02-17T21:40:49.824Z,44.25
2019-02-17T21:43:18.942Z,47.25
2019-02-17T21:45:48.041Z,45.25
2019-02-17T21:48:17.154Z,46.75
2019-02-17T21:50:46.444Z,46.75
2019-02-17T21:53:20.245Z,45.25
2019-02-17T21:56:17.375Z,35.75
2019-02-17T21:58:46.497Z,37.25
2019-02-17T22:01:16.945Z,39.25
2019-02-17T22:03:55.807Z,37.25
2019-02-17T22:06:33.413Z,39.75
2019-02-17T22:09:01.524Z,39.25
2019-02-17T22:11:31.913Z,39.25
2019-02-17T22:14:30.058Z,36.25
2019-02-17T22:18:03.265Z,34.50
2019-02-17T22:20:43.684Z,39.25
2019-02-17T22:23:40.916Z,39.25
2019-02-17T22:31:28.720Z,37.50
2019-02-17T22:33:32.653Z,40.00
2019-02-17T22:36:12.513Z,37.25
2019-02-17T22:38:41.788Z,40.00
2019-02-17T22:41:11.003Z,36.75
2019-02-17T22:43:40.243Z,37.75
2019-02-17T22:46:09.291Z,35.75
2019-02-17T22:48:38.482Z,39.75
2019-02-17T22:51:07.675Z,39.25
2019-02-17T22:53:43.417Z,38.25
2019-02-17T22:56:07.638Z,39.75
2019-02-17T22:58:36.763Z,35.75
2019-02-17T23:01:09.106Z,39.25
2019-02-17T23:03:38.222Z,38.75
2019-02-17T23:06:07.382Z,36.25
2019-02-17T23:08:36.596Z,38.25
2019-02-17T23:11:05.755Z,34.75
2019-02-17T23:13:34.807Z,35.25
2019-02-17T23:16:03.922Z,36.25
2019-02-17T23:18:33.034Z,36.50
2019-02-17T23:21:02.124Z,35.50
2019-02-17T23:23:31.216Z,34.50
2019-02-17T23:26:00.273Z,35.50
2019-02-17T23:28:29.313Z,37.75
2019-02-17T23:30:58.437Z,42.25
2019-02-17T23:33:27.453Z,34.00
2019-02-17T23:35:56.489Z,37.00
2019-02-17T23:38:25.548Z,38.00
2019-02-17T23:40:54.583Z,35.50
2019-02-17T23:43:23.782Z,36.50
2019-02-17T23:45:52.861Z,40.50
2019-02-17T23:48:21.922Z,36.00
2019-02-17T23:50:52.190Z,38.00
2019-02-17T23:53:21.286Z,39.50
2019-02-17T23:55:50.376Z,38.00
2019-02-17T23:58:19.470Z,37.00
